createdAt,value
2023-02-28T00:03:30.232Z,-1.50
2023-02-28T00:08:33.647Z,-1.80
2023-02-28T00:13:41.128Z,-1.90
2023-02-28T00:18:44.491Z,-2.20
2023-02-28T00:23:48.075Z,-2.30
2023-02-28T00:28:54.239Z,-2.40
2023-02-28T00:33:57.775Z,-2.60
2023-02-28T00:39:00.978Z,-2.70
2023-02-28T00:44:06.513Z,-2.70
2023-02-28T00:49:09.761Z,-2.80
2023-02-28T00:54:13.753Z,-2.90
2023-02-28T00:59:19.122Z,-2.90
2023-02-28T01:04:22.721Z,-3.00
2023-02-28T01:09:26.841Z,-3.00
2023-02-28T01:14:31.659Z,-2.80
2023-02-28T01:19:35.245Z,-2.80
2023-02-28T01:24:40.355Z,-2.90
2023-02-28T01:29:44.971Z,-3.10
2023-02-28T01:34:48.304Z,-3.10
2023-02-28T01:39:51.631Z,-3.10
2023-02-28T01:45:22.514Z,-3.20
2023-02-28T01:50:29.559Z,-3.20
2023-02-28T01:55:34.086Z,-3.20
2023-02-28T02:00:39.959Z,-3.30
2023-02-28T02:05:48.363Z,-3.40
2023-02-28T02:10:55.745Z,-3.50
2023-02-28T02:16:11.405Z,-3.50
2023-02-28T02:21:54.486Z,-3.50
2023-02-28T02:27:21.502Z,-3.60
2023-02-28T02:32:56.056Z,-3.60
2023-02-28T02:38:09.451Z,-3.70
2023-02-28T02:43:20.238Z,-3.70
2023-02-28T02:48:30.262Z,-3.70
2023-02-28T02:53:39.402Z,-3.60
2023-02-28T02:58:45.675Z,-3.70
2023-02-28T03:03:49.017Z,-3.70
2023-02-28T03:08:54.449Z,-3.80
2023-02-28T03:14:11.672Z,-3.90
2023-02-28T03:19:32.209Z,-3.80
2023-02-28T03:24:45.893Z,-3.90
2023-02-28T03:29:54.330Z,-4.00
2023-02-28T03:35:02.039Z,-4.10
2023-02-28T03:40:13.773Z,-4.00
2023-02-28T03:45:20.781Z,-4.00
2023-02-28T03:50:28.238Z,-4.00
2023-02-28T03:55:38.194Z,-4.10
2023-02-28T04:00:46.104Z,-4.10
2023-02-28T04:05:53.076Z,-4.10
2023-02-28T04:11:05.358Z,-4.10
2023-02-28T04:16:18.734Z,-4.10
2023-02-28T04:21:27.457Z,-4.00
2023-02-28T04:26:33.292Z,-4.10
2023-02-28T04:31:36.808Z,-4.20
2023-02-28T04:36:40.115Z,-4.10
2023-02-28T04:41:46.441Z,-4.20
2023-02-28T04:46:50.587Z,-4.30
2023-02-28T04:51:54.137Z,-4.30
2023-02-28T04:56:59.462Z,-4.40
2023-02-28T05:02:07.732Z,-4.50
2023-02-28T05:07:11.299Z,-4.60
2023-02-28T05:12:16.940Z,-4.50
2023-02-28T05:17:20.262Z,-4.40
2023-02-28T05:22:23.731Z,-4.50
2023-02-28T05:27:29.510Z,-4.50
2023-02-28T05:32:33.062Z,-4.50
2023-02-28T05:37:38.533Z,-4.50
2023-02-28T05:42:43.342Z,-4.70
2023-02-28T05:47:47.303Z,-4.60
2023-02-28T05:52:51.136Z,-4.70
2023-02-28T05:57:56.045Z,-4.70
2023-02-28T06:03:02.688Z,-4.80
2023-02-28T06:08:09.500Z,-4.80
2023-02-28T06:13:14.147Z,-4.70
2023-02-28T06:18:17.825Z,-4.60
2023-02-28T06:23:21.553Z,-4.60
2023-02-28T06:28:26.979Z,-4.50
2023-02-28T06:33:30.739Z,-4.20
2023-02-28T06:38:34.690Z,-3.30
2023-02-28T06:43:41.976Z,-3.20
2023-02-28T06:48:45.895Z,-3.50
2023-02-28T06:53:49.613Z,-3.60
2023-02-28T06:58:54.206Z,-3.60
2023-02-28T07:03:57.562Z,-3.60
2023-02-28T07:09:05.023Z,-3.60
2023-02-28T07:14:12.693Z,-3.40
2023-02-28T07:19:16.921Z,-3.40
2023-02-28T07:24:20.970Z,-3.10
2023-02-28T07:29:26.132Z,-2.90
2023-02-28T07:34:30.054Z,-2.70
2023-02-28T07:39:33.798Z,-2.30
2023-02-28T07:44:41.333Z,-0.80
2023-02-28T07:49:47.021Z,1.20
2023-02-28T07:54:50.856Z,3.10
2023-02-28T07:59:56.273Z,4.40
2023-02-28T08:05:01.000Z,5.80
2023-02-28T08:10:06.663Z,6.40
2023-02-28T08:15:12.750Z,7.40
2023-02-28T08:20:17.793Z,7.50
2023-02-28T08:25:22.117Z,8.80
2023-02-28T08:30:27.272Z,9.20
2023-02-28T08:35:31.063Z,9.80
2023-02-28T08:40:35.855Z,9.50
2023-02-28T08:45:41.579Z,9.70
2023-02-28T08:50:50.431Z,11.40
2023-02-28T08:56:00.656Z,10.80
2023-02-28T09:01:11.693Z,10.90
2023-02-28T09:06:17.128Z,11.30
2023-02-28T09:11:21.066Z,11.30
2023-02-28T09:16:25.929Z,10.90
2023-02-28T09:21:29.840Z,10.20
2023-02-28T09:26:39.103Z,11.40
2023-02-28T09:31:48.339Z,10.70
2023-02-28T09:36:55.662Z,11.40
2023-02-28T09:41:59.766Z,11.20
2023-02-28T09:47:11.557Z,10.40
2023-02-28T09:52:20.481Z,10.40
2023-02-28T09:57:35.020Z,10.70
2023-02-28T10:02:52.452Z,9.30
2023-02-28T10:08:06.005Z,7.80
2023-02-28T10:13:18.427Z,6.30
2023-02-28T10:18:28.911Z,5.60
2023-02-28T10:23:36.491Z,5.60
2023-02-28T10:28:40.652Z,5.50
2023-02-28T10:33:46.118Z,5.40
2023-02-28T10:38:51.156Z,5.50
2023-02-28T10:44:14.785Z,5.40
2023-02-28T10:49:23.430Z,5.30
2023-02-28T10:54:31.820Z,5.20
2023-02-28T10:59:35.816Z,5.10
2023-02-28T11:04:41.336Z,5.40
2023-02-28T11:09:50.329Z,5.30
2023-02-28T11:14:57.827Z,5.20
2023-02-28T11:20:08.125Z,5.60
2023-02-28T11:25:22.487Z,5.60
2023-02-28T11:30:32.986Z,6.20
2023-02-28T11:35:41.010Z,6.10
2023-02-28T11:40:51.916Z,6.10
2023-02-28T11:46:07.740Z,5.90
2023-02-28T11:51:21.922Z,5.80
2023-02-28T11:56:33.447Z,5.80
2023-02-28T12:01:54.747Z,5.80
2023-02-28T12:07:10.280Z,5.90
2023-02-28T12:12:25.528Z,5.90
2023-02-28T12:17:34.240Z,6.70
2023-02-28T12:22:45.721Z,7.70
2023-02-28T12:27:54.071Z,9.50
2023-02-28T12:33:07.338Z,9.90
2023-02-28T12:38:20.306Z,10.40
2023-02-28T12:43:32.537Z,10.20
2023-02-28T12:48:43.386Z,10.30
2023-02-28T12:54:01.539Z,10.40
2023-02-28T12:59:15.756Z,10.50
2023-02-28T13:05:01.203Z,10.80
2023-02-28T13:10:08.711Z,10.00
2023-02-28T13:15:22.474Z,10.70
2023-02-28T13:20:29.751Z,10.80
2023-02-28T13:25:55.913Z,10.20
2023-02-28T13:31:05.265Z,10.00
2023-02-28T13:36:27.772Z,10.20
2023-02-28T13:41:48.946Z,10.30
2023-02-28T13:47:22.052Z,10.00
2023-02-28T13:52:26.427Z,9.40
2023-02-28T13:57:42.818Z,9.40
2023-02-28T14:03:12.008Z,9.50
2023-02-28T14:08:21.916Z,8.70
2023-02-28T14:13:46.135Z,8.60
2023-02-28T14:18:52.269Z,8.20
2023-02-28T14:24:25.057Z,7.40
2023-02-28T14:30:00.176Z,6.80
2023-02-28T14:35:20.848Z,6.60
2023-02-28T14:40:30.633Z,6.10
2023-02-28T14:45:38.529Z,6.00
2023-02-28T14:50:50.819Z,5.80
2023-02-28T14:55:54.886Z,5.70
2023-02-28T15:01:01.919Z,5.60
2023-02-28T15:06:13.375Z,5.50
2023-02-28T15:11:23.391Z,5.40
2023-02-28T15:16:33.541Z,5.40
2023-02-28T15:21:41.860Z,5.50
2023-02-28T15:26:50.728Z,5.40
2023-02-28T15:32:01.741Z,5.10
2023-02-28T15:37:23.204Z,5.20
2023-02-28T15:42:30.321Z,5.20
2023-02-28T15:47:35.487Z,5.10
2023-02-28T15:52:42.349Z,4.90
2023-02-28T15:57:47.429Z,4.50
2023-02-28T16:02:53.136Z,4.20
2023-02-28T16:07:59.402Z,4.00
2023-02-28T16:13:03.627Z,4.20
2023-02-28T16:18:11.722Z,4.20
2023-02-28T16:23:16.198Z,3.70
2023-02-28T16:28:23.942Z,3.50
2023-02-28T16:33:28.663Z,3.00
2023-02-28T16:38:32.149Z,2.60
2023-02-28T16:43:35.628Z,2.10
2023-02-28T16:48:43.964Z,1.70
2023-02-28T16:53:47.655Z,1.30
2023-02-28T16:58:52.614Z,1.00
2023-02-28T17:03:57.610Z,0.70
2023-02-28T17:09:01.827Z,0.50
2023-02-28T17:14:05.862Z,0.20
2023-02-28T17:19:15.563Z,-0.10
2023-02-28T17:24:29.804Z,-0.40
2023-02-28T17:29:33.884Z,-0.60
2023-02-28T17:34:38.965Z,-0.70
2023-02-28T17:39:43.009Z,-0.90
2023-02-28T17:44:46.702Z,-1.10
2023-02-28T17:49:51.985Z,-1.20
2023-02-28T17:54:55.609Z,-1.40
2023-02-28T17:59:59.514Z,-1.60
2023-02-28T18:05:06.528Z,-1.70
2023-02-28T18:10:20.918Z,-1.80
2023-02-28T18:15:24.775Z,-1.90
2023-02-28T18:20:29.727Z,-2.00
2023-02-28T18:25:34.254Z,-2.10
2023-02-28T18:30:38.481Z,-2.20
2023-02-28T18:35:44.779Z,-2.30
2023-02-28T18:40:53.907Z,-2.30
2023-02-28T18:45:57.532Z,-2.30
2023-02-28T18:51:08.132Z,-2.40
2023-02-28T18:56:14.172Z,-2.40
2023-02-28T19:01:21.133Z,-2.50
2023-02-28T19:06:26.906Z,-2.60
2023-02-28T19:11:31.574Z,-2.70
2023-02-28T19:16:35.145Z,-2.80
2023-02-28T19:21:40.094Z,-2.90
2023-02-28T19:26:44.175Z,-2.90
2023-02-28T19:31:48.279Z,-2.80
2023-02-28T19:36:53.973Z,-2.90
2023-02-28T19:41:57.624Z,-2.90
2023-02-28T19:47:01.556Z,-3.10
2023-02-28T19:52:10.366Z,-3.10
2023-02-28T19:57:17.624Z,-3.10
2023-02-28T20:02:22.702Z,-3.20
2023-02-28T20:07:28.974Z,-3.20
2023-02-28T20:12:32.680Z,-3.10
2023-02-28T20:17:36.389Z,-3.20
2023-02-28T20:22:41.581Z,-3.30
2023-02-28T20:27:45.180Z,-3.20
2023-02-28T20:32:48.941Z,-3.40
2023-02-28T20:37:53.862Z,-3.40
2023-02-28T20:42:57.741Z,-3.40
2023-02-28T20:48:01.991Z,-3.50
2023-02-28T20:53:06.970Z,-3.50
2023-02-28T20:58:11.322Z,-3.60
2023-02-28T21:03:15.123Z,-3.50
2023-02-28T21:08:20.940Z,-3.60
2023-02-28T21:13:26.726Z,-3.60
2023-02-28T21:18:30.249Z,-3.60
2023-02-28T21:23:35.665Z,-3.60
2023-02-28T21:28:44.346Z,-3.60
2023-02-28T21:33:48.436Z,-3.50
2023-02-28T21:38:58.594Z,-3.60
2023-02-28T21:44:02.404Z,-3.70
2023-02-28T21:49:06.106Z,-3.80
2023-02-28T21:54:11.458Z,-3.80
2023-02-28T21:59:15.502Z,-3.80
2023-02-28T22:04:22.659Z,-3.70
2023-02-28T22:09:28.192Z,-3.80
2023-02-28T22:14:32.007Z,-3.80
2023-02-28T22:19:36.915Z,-3.90
2023-02-28T22:24:42.013Z,-3.80
2023-02-28T22:29:47.448Z,-3.80
2023-02-28T22:34:51.827Z,-3.90
2023-02-28T22:39:56.605Z,-4.00
2023-02-28T22:45:00.360Z,-4.00
2023-02-28T22:50:04.621Z,-4.10
2023-02-28T22:55:10.943Z,-4.10
2023-02-28T23:00:15.526Z,-4.10
2023-02-28T23:05:21.588Z,-4.10
2023-02-28T23:10:27.330Z,-4.00
2023-02-28T23:15:32.127Z,-4.20
2023-02-28T23:20:36.168Z,-4.20
2023-02-28T23:25:42.404Z,-4.20
2023-02-28T23:30:46.300Z,-4.30
2023-02-28T23:35:51.116Z,-4.40
2023-02-28T23:40:56.344Z,-4.30
2023-02-28T23:46:00.444Z,-4.50
2023-02-28T23:51:09.765Z,-4.40
2023-02-28T23:56:18.230Z,-4.40
